Airfield :







YOU CAN JOIN US ON...

 
LOGIN :

Register | Disclaimer

   EN    FR    IT 

 









Legend :    VFR   Marginal VFR   IFR   Intensive IFR   Very Intensive IFR
Visi :
Ceiling :
>= 8 km
>= 3000ft
5 to 8 km
1000 to 3000 ft
1500m to 5 km
500 to 1000 ft
800 to 1500m
200 to 500 ft
< 800m
< 200 ft
Symbols :   Thunderstorms  Fog  Heavy snow  Heavy precipitations  Wind > 20 kt






- Airport Elevation : 83 ft


KBHB - Hancock County-Bar Harbor

CURRENT METAR :
  • 221556Z AUTO 08006KT 10SM CLR 12/09 A3020 RMK AO2 SLP226 T01220089

EXPIRED METARs :
  • 221456Z AUTO 11007KT 10SM CLR 11/08 A3022 RMK AO2 SLP235 T01110083 53002
  • 221356Z AUTO 07006KT 10SM CLR 09/07 A3022 RMK AO2 SLP234 T00940072

TAF KBHB
Valid from the 22 at 12:00 until the 23 at 12:00 UTC


221120Z 2212/2312 VRB03KT P6SM BKN250
FM221800 10010G18KT P6SM BKN100
FM230400 11015G25KT P6SM VCSH BKN020 OVC040 WS020/14050KT
FM230700 13020G32KT 2SM RA BR OVC008



MET'MAP, your aeronautical weather chart ! - Copyright ORBIFLY December 2007 - Disclaimer

ORBIFLY MET'MAP TEAM :

Programming & Development : Alexandra Zaïnal
Concept & Development : Baudouin d'Aumeries
Co-Development & Prog : Marc-Olivier Méhu
Technical & hardware support : Manuel Goepfert

Contact : metmap@orbifly.com




SOURCES & CREDITS :

   NOAA